Time;durP1;ratioP1;P1;durP2;ratioP2;P2;SDS_P1;SDS_P2;PMS_P1;PMS_P2;Temp;Humidity;BMP_temperature;BMP_pressure;BME280_temperature;BME280_humidity;BME280_pressure;Samples;Min_cycle;Max_cycle;Signal;HPM_P1;HPM_P2
2022/04/11 00:01:56;;;;;;;6.97;2.88;;;;;;;;;;5072867;28;20056;-67
2022/04/11 00:04:23;;;;;;;6.88;2.90;;;;;;;;;;5076571;28;20052;-67
2022/04/11 00:06:49;;;;;;;7.13;3.15;;;;;;;;;;5067687;28;20123;-67
2022/04/11 00:09:15;;;;;;;7.05;3.13;;;;;;;;;;5067880;28;20176;-67
2022/04/11 00:11:42;;;;;;;7.13;3.30;;;;;;;;;;5085648;28;20061;-67
2022/04/11 00:14:08;;;;;;;9.27;3.00;;;;;;;;;;5087232;28;20052;-67
2022/04/11 00:16:34;;;;;;;9.43;3.28;;;;;;;;;;5084251;28;20131;-67
2022/04/11 00:19:01;;;;;;;9.15;3.25;;;;;;;;;;5087732;28;20049;-67
2022/04/11 00:21:27;;;;;;;9.10;3.30;;;;;;;;;;5084754;28;20141;-67
2022/04/11 00:23:53;;;;;;;8.30;3.30;;;;;;;;;;5085992;28;20528;-67
2022/04/11 00:26:20;;;;;;;10.98;3.42;;;;;;;;;;5078665;28;20138;-67
2022/04/11 00:28:46;;;;;;;11.32;3.45;;;;;;;;;;5080109;28;20078;-67
2022/04/11 00:31:12;;;;;;;9.60;3.70;;;;;;;;;;5084168;28;20048;-67
2022/04/11 00:33:39;;;;;;;10.55;3.53;;;;;;;;;;5086163;28;20509;-67
2022/04/11 00:36:05;;;;;;;12.25;3.90;;;;;;;;;;5082590;28;20059;-67
2022/04/11 00:38:32;;;;;;;9.48;3.85;;;;;;;;;;5080723;28;20057;-67
2022/04/11 00:40:58;;;;;;;11.00;4.10;;;;;;;;;;5069815;28;20059;-68
2022/04/11 00:43:39;;;;;;;9.38;3.97;;;;;;;;;;5068404;28;20053;-67
2022/04/11 00:46:06;;;;;;;7.38;3.70;;;;;;;;;;5067764;28;20130;-67
2022/04/11 00:48:33;;;;;;;9.57;3.88;;;;;;;;;;5067996;28;20053;-67
2022/04/11 00:51:01;;;;;;;8.25;3.53;;;;;;;;;;5068141;28;20084;-67
2022/04/11 00:53:28;;;;;;;11.10;3.83;;;;;;;;;;5068004;28;20487;-67
2022/04/11 00:55:56;;;;;;;8.85;3.92;;;;;;;;;;5067372;28;20053;-67
2022/04/11 00:58:22;;;;;;;6.93;3.42;;;;;;;;;;5067858;28;20053;-67
2022/04/11 01:00:49;;;;;;;9.23;3.63;;;;;;;;;;5068037;28;20144;-67
2022/04/11 01:03:15;;;;;;;10.52;3.05;;;;;;;;;;5067380;28;20053;-67
2022/04/11 01:05:42;;;;;;;8.32;3.00;;;;;;;;;;5067489;28;20052;-67
2022/04/11 01:08:09;;;;;;;12.73;3.30;;;;;;;;;;5068331;28;20139;-67
2022/04/11 01:10:36;;;;;;;9.55;3.70;;;;;;;;;;5079220;28;20059;-67
2022/04/11 01:13:03;;;;;;;7.43;3.70;;;;;;;;;;5074217;28;20052;-67
2022/04/11 01:15:29;;;;;;;7.32;3.28;;;;;;;;;;5084655;28;20096;-67
2022/04/11 01:17:55;;;;;;;8.48;3.35;;;;;;;;;;5083881;28;20487;-67
2022/04/11 01:20:22;;;;;;;10.55;3.53;;;;;;;;;;5085083;28;20076;-67
2022/04/11 01:22:48;;;;;;;7.53;3.25;;;;;;;;;;5086704;28;20084;-67
2022/04/11 01:25:15;;;;;;;6.72;3.40;;;;;;;;;;5079649;28;20059;-67
2022/04/11 01:27:42;;;;;;;7.18;3.40;;;;;;;;;;5084436;28;20564;-67
2022/04/11 01:30:09;;;;;;;10.30;3.80;;;;;;;;;;5087407;28;20060;-67
2022/04/11 01:32:36;;;;;;;11.40;3.67;;;;;;;;;;5084779;28;20057;-67
2022/04/11 01:35:03;;;;;;;9.82;4.00;;;;;;;;;;5087285;28;20044;-67
2022/04/11 01:37:29;;;;;;;10.85;3.72;;;;;;;;;;5079300;28;20073;-67
2022/04/11 01:39:56;;;;;;;9.50;3.53;;;;;;;;;;5086017;28;20129;-67
2022/04/11 01:42:22;;;;;;;6.88;3.70;;;;;;;;;;5087420;28;20075;-67
2022/04/11 01:44:48;;;;;;;9.30;3.63;;;;;;;;;;5089629;28;20509;-67
2022/04/11 01:47:15;;;;;;;8.90;3.78;;;;;;;;;;5088836;28;20054;-67
2022/04/11 01:49:41;;;;;;;9.60;4.20;;;;;;;;;;5088858;28;20057;-67
2022/04/11 01:52:07;;;;;;;8.52;3.83;;;;;;;;;;5088063;28;20053;-67
2022/04/11 01:54:34;;;;;;;10.05;3.88;;;;;;;;;;5090587;28;20047;-67
2022/04/11 01:57:00;;;;;;;9.88;3.92;;;;;;;;;;5089783;28;20056;-67
2022/04/11 01:59:27;;;;;;;7.78;4.18;;;;;;;;;;5087108;28;20143;-67
2022/04/11 02:01:53;;;;;;;7.82;3.88;;;;;;;;;;5089586;28;20055;-67
2022/04/11 02:04:20;;;;;;;9.07;4.28;;;;;;;;;;5085836;28;20171;-67
2022/04/11 02:06:46;;;;;;;8.55;3.95;;;;;;;;;;5059887;28;20052;-67
2022/04/11 02:09:12;;;;;;;10.68;4.18;;;;;;;;;;5088553;28;20044;-67
2022/04/11 02:11:39;;;;;;;9.93;4.13;;;;;;;;;;5055669;28;20063;-67
2022/04/11 02:14:05;;;;;;;12.95;4.70;;;;;;;;;;5089951;28;20067;-67
2022/04/11 02:16:31;;;;;;;8.15;4.13;;;;;;;;;;5089401;28;20063;-67
2022/04/11 02:18:58;;;;;;;12.35;4.35;;;;;;;;;;5088254;28;20139;-68
2022/04/11 02:21:24;;;;;;;11.02;4.55;;;;;;;;;;5087260;28;20618;-67
2022/04/11 02:23:50;;;;;;;8.88;4.25;;;;;;;;;;5088949;28;20057;-68
2022/04/11 02:26:17;;;;;;;9.15;4.35;;;;;;;;;;5086877;28;22192;-67
2022/04/11 02:28:43;;;;;;;9.13;4.28;;;;;;;;;;5089224;28;20119;-67
2022/04/11 02:31:09;;;;;;;12.13;4.65;;;;;;;;;;5089194;28;20145;-67
2022/04/11 02:33:36;;;;;;;9.85;4.05;;;;;;;;;;5087915;28;20054;-67
2022/04/11 02:36:02;;;;;;;9.45;3.97;;;;;;;;;;5086273;28;20966;-67
2022/04/11 02:38:28;;;;;;;7.95;4.35;;;;;;;;;;5083898;28;20533;-67
2022/04/11 02:40:54;;;;;;;8.68;4.03;;;;;;;;;;5087865;28;20053;-67
2022/04/11 02:43:21;;;;;;;9.68;4.03;;;;;;;;;;5064397;28;20426;-67
2022/04/11 02:45:48;;;;;;;11.30;4.72;;;;;;;;;;5087274;28;20048;-67
2022/04/11 02:48:14;;;;;;;9.15;4.18;;;;;;;;;;5085832;28;20941;-67
2022/04/11 02:50:41;;;;;;;9.30;4.15;;;;;;;;;;5073305;28;20064;-67
2022/04/11 02:53:07;;;;;;;9.20;4.10;;;;;;;;;;5069768;28;20053;-67
2022/04/11 02:55:34;;;;;;;11.65;4.18;;;;;;;;;;5068974;28;20923;-67
2022/04/11 02:58:00;;;;;;;10.93;4.45;;;;;;;;;;5068634;28;20061;-67
2022/04/11 03:00:26;;;;;;;11.10;4.28;;;;;;;;;;5070091;28;20143;-67
2022/04/11 03:02:53;;;;;;;11.10;4.10;;;;;;;;;;5070404;28;20064;-67
2022/04/11 03:05:19;;;;;;;7.13;3.47;;;;;;;;;;5069317;28;20849;-67
2022/04/11 03:07:46;;;;;;;10.45;4.00;;;;;;;;;;5073255;28;20059;-67
2022/04/11 03:10:13;;;;;;;7.43;3.78;;;;;;;;;;5078563;28;20054;-67
2022/04/11 03:12:39;;;;;;;8.77;4.20;;;;;;;;;;5089644;28;20126;-67
2022/04/11 03:15:06;;;;;;;8.45;3.80;;;;;;;;;;5088978;28;20052;-67
2022/04/11 03:17:32;;;;;;;9.27;4.00;;;;;;;;;;5089619;28;20564;-67
2022/04/11 03:19:59;;;;;;;11.05;4.32;;;;;;;;;;5086163;28;20483;-67
2022/04/11 03:22:25;;;;;;;8.05;3.88;;;;;;;;;;5087224;28;20908;-67
2022/04/11 03:24:51;;;;;;;10.63;4.05;;;;;;;;;;5083190;28;20067;-67
2022/04/11 03:27:18;;;;;;;8.88;3.90;;;;;;;;;;5088157;28;20139;-67
2022/04/11 03:29:44;;;;;;;7.13;3.67;;;;;;;;;;5088328;28;20059;-67
2022/04/11 03:32:10;;;;;;;7.97;3.55;;;;;;;;;;5088224;28;20400;-68
2022/04/11 03:34:37;;;;;;;8.80;4.13;;;;;;;;;;5087392;28;20051;-67
2022/04/11 03:37:03;;;;;;;8.05;3.97;;;;;;;;;;5084200;28;20056;-67
2022/04/11 03:39:29;;;;;;;9.98;4.20;;;;;;;;;;5086810;28;20053;-67
2022/04/11 03:41:56;;;;;;;8.75;4.13;;;;;;;;;;5088236;28;20151;-67
2022/04/11 03:44:22;;;;;;;9.75;4.30;;;;;;;;;;5085475;28;20057;-67
2022/04/11 03:46:48;;;;;;;9.07;4.13;;;;;;;;;;5086605;28;20147;-67
2022/04/11 03:49:15;;;;;;;7.88;3.97;;;;;;;;;;5084213;28;20623;-67
2022/04/11 03:51:41;;;;;;;7.85;4.25;;;;;;;;;;5071445;28;20051;-67
2022/04/11 03:54:07;;;;;;;7.85;4.13;;;;;;;;;;5068229;28;20175;-67
2022/04/11 03:56:34;;;;;;;11.98;4.13;;;;;;;;;;5068451;28;20079;-67
2022/04/11 03:59:00;;;;;;;7.97;3.95;;;;;;;;;;5068343;28;20148;-67
2022/04/11 04:01:26;;;;;;;12.35;4.40;;;;;;;;;;5068193;28;20139;-67
2022/04/11 04:03:53;;;;;;;6.97;3.63;;;;;;;;;;5069305;28;20057;-67
2022/04/11 04:06:20;;;;;;;9.25;3.92;;;;;;;;;;5068562;28;20049;-68
2022/04/11 04:08:46;;;;;;;8.63;4.18;;;;;;;;;;5069056;28;20144;-68
2022/04/11 04:11:12;;;;;;;8.88;3.97;;;;;;;;;;5068253;28;20055;-67
2022/04/11 04:13:39;;;;;;;10.27;3.80;;;;;;;;;;5068261;28;20580;-68
2022/04/11 04:16:05;;;;;;;7.55;4.00;;;;;;;;;;5068151;28;20140;-67
2022/04/11 04:18:31;;;;;;;8.00;3.78;;;;;;;;;;5067412;28;20052;-68
2022/04/11 04:20:58;;;;;;;13.48;4.72;;;;;;;;;;5073596;28;20052;-69
2022/04/11 04:23:25;;;;;;;8.63;4.00;;;;;;;;;;5087102;28;20080;-67
2022/04/11 04:25:51;;;;;;;10.95;4.32;;;;;;;;;;5085446;28;20058;-68
2022/04/11 04:28:18;;;;;;;9.98;3.90;;;;;;;;;;5085513;28;20048;-67
2022/04/11 04:30:48;;;;;;;10.05;4.43;;;;;;;;;;5088444;28;20052;-67
2022/04/11 04:33:14;;;;;;;11.80;4.40;;;;;;;;;;5084664;28;20524;-67
2022/04/11 04:35:40;;;;;;;7.60;4.32;;;;;;;;;;5083314;28;20056;-67
2022/04/11 04:38:08;;;;;;;11.90;4.35;;;;;;;;;;5082987;28;20044;-67
2022/04/11 04:40:34;;;;;;;7.45;4.07;;;;;;;;;;5070249;28;20057;-67
2022/04/11 04:43:00;;;;;;;7.70;4.10;;;;;;;;;;5067698;28;20128;-67
2022/04/11 04:45:27;;;;;;;9.13;4.10;;;;;;;;;;5067895;28;20037;-66
2022/04/11 04:47:53;;;;;;;9.73;4.40;;;;;;;;;;5067900;28;20517;-67
2022/04/11 04:50:20;;;;;;;8.35;4.47;;;;;;;;;;5067475;28;20064;-67
2022/04/11 04:52:46;;;;;;;9.48;4.70;;;;;;;;;;5068329;28;20456;-67
2022/04/11 04:55:12;;;;;;;7.22;4.07;;;;;;;;;;5076433;28;20084;-67
2022/04/11 04:57:38;;;;;;;10.95;4.45;;;;;;;;;;5077650;28;20056;-67
2022/04/11 05:00:07;;;;;;;16.02;5.47;;;;;;;;;;5083011;28;20090;-67
2022/04/11 05:02:34;;;;;;;10.75;4.38;;;;;;;;;;5088162;28;20060;-67
2022/04/11 05:05:08;;;;;;;10.30;4.63;;;;;;;;;;5087798;28;20057;-67
2022/04/11 05:07:35;;;;;;;9.65;4.30;;;;;;;;;;5086943;28;20596;-67
2022/04/11 05:10:08;;;;;;;12.95;4.50;;;;;;;;;;5088754;28;20140;-67
2022/04/11 05:12:42;;;;;;;11.90;4.78;;;;;;;;;;5087810;28;20514;-67
2022/04/11 05:15:09;;;;;;;14.07;4.30;;;;;;;;;;5087455;28;20569;-66
2022/04/11 05:17:35;;;;;;;12.15;4.78;;;;;;;;;;5089060;28;20180;-66
2022/04/11 05:20:03;;;;;;;11.55;4.80;;;;;;;;;;5091672;28;20143;-66
2022/04/11 05:22:29;;;;;;;10.85;4.93;;;;;;;;;;5090978;28;20159;-66
2022/04/11 05:24:55;;;;;;;9.98;4.72;;;;;;;;;;5090606;28;20179;-67
2022/04/11 05:27:22;;;;;;;11.73;4.88;;;;;;;;;;5091258;28;20080;-67
2022/04/11 05:29:48;;;;;;;10.20;4.65;;;;;;;;;;5091866;28;20075;-68
2022/04/11 05:32:14;;;;;;;9.25;4.75;;;;;;;;;;5091780;28;20080;-67
2022/04/11 05:34:41;;;;;;;12.38;5.07;;;;;;;;;;5091388;28;20053;-67
2022/04/11 05:37:07;;;;;;;11.60;4.93;;;;;;;;;;5091277;28;20512;-66
2022/04/11 05:39:33;;;;;;;13.50;5.78;;;;;;;;;;5089548;28;20057;-66
2022/04/11 05:42:00;;;;;;;11.48;6.15;;;;;;;;;;5085238;28;20053;-67
2022/04/11 05:44:26;;;;;;;10.13;5.18;;;;;;;;;;5089000;28;20063;-66
2022/04/11 05:46:52;;;;;;;11.10;5.70;;;;;;;;;;5087869;28;20052;-66
2022/04/11 05:49:20;;;;;;;10.02;5.05;;;;;;;;;;5080507;28;20061;-67
2022/04/11 05:51:47;;;;;;;8.80;4.70;;;;;;;;;;5069829;28;20053;-66
2022/04/11 05:54:13;;;;;;;10.63;5.50;;;;;;;;;;5070872;28;20053;-67
2022/04/11 05:56:39;;;;;;;8.70;5.03;;;;;;;;;;5070549;28;20049;-67
2022/04/11 05:59:08;;;;;;;9.43;5.35;;;;;;;;;;5070253;28;20057;-66
2022/04/11 06:01:35;;;;;;;10.15;5.32;;;;;;;;;;5070707;28;20586;-66
2022/04/11 06:04:01;;;;;;;9.52;5.55;;;;;;;;;;5071692;28;20570;-67
2022/04/11 06:06:28;;;;;;;8.77;4.75;;;;;;;;;;5087309;28;20056;-67
2022/04/11 06:08:54;;;;;;;8.82;5.10;;;;;;;;;;5085288;28;20538;-67
2022/04/11 06:11:20;;;;;;;9.57;5.65;;;;;;;;;;5052173;28;20059;-67
2022/04/11 06:13:47;;;;;;;14.00;5.63;;;;;;;;;;5078499;28;20136;-67
2022/04/11 06:16:13;;;;;;;9.80;5.50;;;;;;;;;;5087883;28;20509;-67
2022/04/11 06:18:40;;;;;;;10.90;5.82;;;;;;;;;;5090532;28;20156;-67
2022/04/11 06:21:06;;;;;;;13.93;5.88;;;;;;;;;;5090640;28;20222;-67
2022/04/11 06:23:33;;;;;;;14.88;6.15;;;;;;;;;;5088406;28;20836;-67
2022/04/11 06:26:00;;;;;;;13.70;5.65;;;;;;;;;;5086494;28;20163;-67
2022/04/11 06:28:27;;;;;;;228.45;13.38;;;;;;;;;;5089286;28;20871;-67
2022/04/11 06:30:54;;;;;;;14.82;5.70;;;;;;;;;;5088691;28;20106;-66
2022/04/11 06:33:21;;;;;;;12.73;5.53;;;;;;;;;;5079819;28;20107;-66
2022/04/11 06:35:47;;;;;;;10.82;6.03;;;;;;;;;;5070188;28;20049;-66
2022/04/11 06:38:13;;;;;;;11.52;5.65;;;;;;;;;;5073561;28;20053;-66
2022/04/11 06:40:40;;;;;;;9.82;5.50;;;;;;;;;;5090372;28;20055;-66
2022/04/11 06:43:06;;;;;;;20.52;6.32;;;;;;;;;;5073612;28;20495;-66
2022/04/11 06:45:33;;;;;;;11.70;6.18;;;;;;;;;;5052900;28;20057;-67
2022/04/11 06:47:59;;;;;;;13.70;5.80;;;;;;;;;;5075880;28;20076;-67
2022/04/11 06:50:25;;;;;;;14.00;6.53;;;;;;;;;;5089170;28;20959;-67
2022/04/11 06:52:51;;;;;;;12.30;6.25;;;;;;;;;;5077543;28;20051;-67
2022/04/11 06:55:18;;;;;;;11.32;6.07;;;;;;;;;;5074918;28;20618;-68
2022/04/11 06:57:44;;;;;;;11.50;5.47;;;;;;;;;;5066191;28;20148;-67
2022/04/11 07:00:11;;;;;;;12.60;6.10;;;;;;;;;;5067579;28;20140;-67
2022/04/11 07:02:37;;;;;;;10.95;6.15;;;;;;;;;;5080806;28;20175;-68
2022/04/11 07:05:05;;;;;;;12.43;5.93;;;;;;;;;;5075922;28;20306;-68
2022/04/11 07:07:31;;;;;;;15.43;6.97;;;;;;;;;;5068368;28;20144;-66
2022/04/11 07:09:59;;;;;;;20.10;7.03;;;;;;;;;;5068757;28;20053;-67
2022/04/11 07:12:26;;;;;;;13.68;6.18;;;;;;;;;;5067216;28;20587;-67
2022/04/11 07:14:53;;;;;;;13.45;6.35;;;;;;;;;;5084438;28;20516;-67
2022/04/11 07:17:20;;;;;;;15.00;6.18;;;;;;;;;;5088131;28;20508;-67
2022/04/11 07:19:46;;;;;;;8.88;5.63;;;;;;;;;;5088361;28;20524;-66
2022/04/11 07:22:13;;;;;;;15.18;5.82;;;;;;;;;;5085091;28;20041;-67
2022/04/11 07:24:39;;;;;;;10.32;6.30;;;;;;;;;;5085648;28;20541;-67
2022/04/11 07:27:06;;;;;;;11.55;5.75;;;;;;;;;;5087401;28;20056;-68
2022/04/11 07:29:33;;;;;;;10.13;5.55;;;;;;;;;;5089361;28;20106;-67
2022/04/11 07:31:59;;;;;;;13.30;5.40;;;;;;;;;;5085299;28;20141;-67
2022/04/11 07:34:25;;;;;;;8.98;5.22;;;;;;;;;;5089014;28;20143;-67
2022/04/11 07:36:52;;;;;;;10.80;5.47;;;;;;;;;;5087826;28;20056;-67
2022/04/11 07:39:19;;;;;;;10.93;5.43;;;;;;;;;;5088713;28;20528;-67
2022/04/11 07:41:45;;;;;;;14.07;6.45;;;;;;;;;;5081416;28;20053;-67
2022/04/11 07:44:11;;;;;;;12.65;5.88;;;;;;;;;;5088338;28;20135;-67
2022/04/11 07:46:38;;;;;;;10.60;5.97;;;;;;;;;;5089248;28;20066;-67
2022/04/11 07:49:04;;;;;;;10.73;5.95;;;;;;;;;;5087273;28;20049;-67
2022/04/11 07:51:30;;;;;;;10.93;5.60;;;;;;;;;;5088319;28;20053;-68
2022/04/11 07:53:57;;;;;;;15.18;5.85;;;;;;;;;;5081549;28;20164;-67
2022/04/11 07:56:23;;;;;;;11.77;6.15;;;;;;;;;;5068956;28;20045;-67
2022/04/11 07:58:49;;;;;;;14.70;5.40;;;;;;;;;;5087585;28;20147;-67
2022/04/11 08:01:21;;;;;;;10.13;5.47;;;;;;;;;;5080975;28;20590;-67
2022/04/11 08:03:47;;;;;;;11.50;5.85;;;;;;;;;;5071172;28;20400;-67
2022/04/11 08:06:14;;;;;;;10.63;5.72;;;;;;;;;;5073326;28;20153;-67
2022/04/11 08:08:44;;;;;;;10.13;5.50;;;;;;;;;;5071514;28;20052;-67
2022/04/11 08:11:11;;;;;;;11.00;6.20;;;;;;;;;;5066995;28;20050;-67
2022/04/11 08:13:46;;;;;;;13.25;5.45;;;;;;;;;;5074073;28;20068;-67
2022/04/11 08:16:12;;;;;;;9.40;5.63;;;;;;;;;;5067888;28;20047;-67
2022/04/11 08:18:40;;;;;;;10.90;5.40;;;;;;;;;;5068173;28;20084;-67
2022/04/11 08:21:06;;;;;;;16.63;5.47;;;;;;;;;;5065642;28;20061;-67
2022/04/11 08:23:33;;;;;;;9.95;4.90;;;;;;;;;;5067972;28;20053;-68
2022/04/11 08:25:59;;;;;;;12.63;4.88;;;;;;;;;;5072782;28;20053;-67
2022/04/11 08:28:26;;;;;;;9.70;4.75;;;;;;;;;;5068078;28;20087;-67
2022/04/11 08:30:52;;;;;;;8.65;4.50;;;;;;;;;;5058097;28;20531;-67
2022/04/11 08:33:18;;;;;;;11.20;4.82;;;;;;;;;;5065162;28;20131;-67
2022/04/11 08:35:45;;;;;;;11.27;5.00;;;;;;;;;;5088123;28;20056;-67
2022/04/11 08:38:11;;;;;;;9.15;4.65;;;;;;;;;;5078947;28;20056;-67
2022/04/11 08:40:38;;;;;;;11.35;4.18;;;;;;;;;;5079420;28;20147;-67
2022/04/11 08:43:05;;;;;;;9.63;4.07;;;;;;;;;;5082043;28;20151;-67
2022/04/11 08:45:31;;;;;;;8.23;4.15;;;;;;;;;;5087491;28;20052;-67
2022/04/11 08:47:57;;;;;;;8.30;3.90;;;;;;;;;;5067052;28;20565;-67
2022/04/11 08:50:25;;;;;;;7.22;3.20;;;;;;;;;;5047235;28;20148;-67
2022/04/11 08:52:53;;;;;;;7.63;3.80;;;;;;;;;;5064145;28;20098;-67
2022/04/11 08:55:19;;;;;;;10.95;4.28;;;;;;;;;;5087496;28;20509;-67
2022/04/11 08:57:46;;;;;;;10.82;4.20;;;;;;;;;;5087330;28;20092;-67
2022/04/11 09:00:14;;;;;;;9.73;4.00;;;;;;;;;;5081330;28;20053;-67
2022/04/11 09:02:42;;;;;;;9.57;4.30;;;;;;;;;;5081860;28;20045;-67
2022/04/11 09:05:09;;;;;;;8.82;4.00;;;;;;;;;;5073254;28;20099;-67
2022/04/11 09:07:44;;;;;;;9.20;3.70;;;;;;;;;;5067727;28;20051;-67
2022/04/11 09:10:11;;;;;;;9.93;3.67;;;;;;;;;;5066882;28;20049;-67
2022/04/11 09:12:47;;;;;;;8.68;3.60;;;;;;;;;;5057284;28;20144;-67
2022/04/11 09:15:14;;;;;;;10.57;4.25;;;;;;;;;;5058781;28;20503;-67
2022/04/11 09:17:41;;;;;;;7.93;3.65;;;;;;;;;;5080891;28;20507;-67
2022/04/11 09:20:11;;;;;;;6.72;3.47;;;;;;;;;;5078600;28;20144;-66
2022/04/11 09:22:40;;;;;;;9.13;3.95;;;;;;;;;;5080871;28;20088;-67
2022/04/11 09:25:11;;;;;;;12.73;4.10;;;;;;;;;;5080912;28;20495;-67
2022/04/11 09:27:37;;;;;;;9.68;4.22;;;;;;;;;;5079370;28;20049;-67
2022/04/11 09:30:23;;;;;;;7.57;3.53;;;;;;;;;;5074746;28;20263;-67
2022/04/11 09:32:55;;;;;;;10.50;3.92;;;;;;;;;;5087871;28;20057;-67
2022/04/11 09:35:29;;;;;;;12.30;3.67;;;;;;;;;;5076177;28;20140;-66
2022/04/11 09:38:05;;;;;;;10.23;4.57;;;;;;;;;;5069144;28;20152;-66
2022/04/11 09:40:34;;;;;;;10.18;4.72;;;;;;;;;;5066123;28;20152;-66
2022/04/11 09:43:01;;;;;;;17.02;4.65;;;;;;;;;;5066580;28;20053;-66
2022/04/11 09:45:27;;;;;;;11.98;5.28;;;;;;;;;;5073284;28;20144;-67
2022/04/11 09:48:01;;;;;;;8.73;4.35;;;;;;;;;;5081796;28;20582;-67
2022/04/11 09:50:28;;;;;;;7.82;4.40;;;;;;;;;;5064098;28;20587;-67
2022/04/11 09:53:05;;;;;;;8.55;4.30;;;;;;;;;;5080679;28;20059;-66
2022/04/11 09:55:33;;;;;;;9.90;5.25;;;;;;;;;;5071172;28;20052;-67
2022/04/11 09:58:00;;;;;;;11.07;5.85;;;;;;;;;;5075598;28;20136;-67
2022/04/11 10:00:27;;;;;;;11.80;5.15;;;;;;;;;;5083117;28;20056;-66
2022/04/11 10:02:53;;;;;;;10.55;5.40;;;;;;;;;;5087285;28;20143;-67
2022/04/11 10:05:20;;;;;;;13.57;6.53;;;;;;;;;;5090140;28;20929;-66
2022/04/11 10:07:46;;;;;;;12.15;6.95;;;;;;;;;;5080884;28;20088;-66
2022/04/11 10:10:17;;;;;;;12.88;6.75;;;;;;;;;;5087083;28;20563;-67
2022/04/11 10:12:43;;;;;;;11.07;6.53;;;;;;;;;;5069944;28;20136;-66
2022/04/11 10:15:10;;;;;;;9.93;5.90;;;;;;;;;;5077479;28;20056;-67
2022/04/11 10:17:36;;;;;;;9.80;5.68;;;;;;;;;;5077369;28;20059;-67
2022/04/11 10:20:03;;;;;;;10.90;5.75;;;;;;;;;;5079267;28;20064;-67
2022/04/11 10:22:33;;;;;;;12.18;6.05;;;;;;;;;;5089973;28;20056;-67
2022/04/11 10:25:04;;;;;;;10.73;5.68;;;;;;;;;;5070085;28;20045;-67
2022/04/11 10:27:32;;;;;;;11.40;6.35;;;;;;;;;;5067553;28;20131;-67
2022/04/11 10:29:59;;;;;;;10.73;6.30;;;;;;;;;;5069340;28;20151;-67
2022/04/11 10:32:26;;;;;;;12.40;6.10;;;;;;;;;;5086792;28;20063;-67
2022/04/11 10:34:54;;;;;;;10.57;6.07;;;;;;;;;;5068271;28;20144;-66
2022/04/11 10:37:22;;;;;;;10.65;6.30;;;;;;;;;;5066893;28;20053;-66
2022/04/11 10:39:49;;;;;;;14.50;5.82;;;;;;;;;;5076136;28;20151;-67
2022/04/11 10:42:16;;;;;;;12.80;6.35;;;;;;;;;;5089302;28;20451;-66
2022/04/11 10:44:50;;;;;;;11.18;6.30;;;;;;;;;;5088738;28;20140;-66
2022/04/11 10:47:16;;;;;;;11.43;5.57;;;;;;;;;;5061475;28;20148;-67
2022/04/11 10:49:56;;;;;;;9.82;5.30;;;;;;;;;;5048821;28;20152;-67
2022/04/11 10:52:38;;;;;;;9.73;5.30;;;;;;;;;;5061852;28;20053;-66
2022/04/11 10:55:04;;;;;;;9.43;5.38;;;;;;;;;;5070174;28;20053;-68
2022/04/11 10:57:31;;;;;;;9.35;5.25;;;;;;;;;;5078718;28;20058;-66
2022/04/11 11:00:01;;;;;;;9.95;5.35;;;;;;;;;;5069768;28;20052;-66
2022/04/11 11:02:48;;;;;;;9.38;4.60;;;;;;;;;;5074279;28;20059;-66
2022/04/11 11:05:27;;;;;;;9.05;4.45;;;;;;;;;;5060578;28;20053;-66
2022/04/11 11:08:11;;;;;;;8.57;5.00;;;;;;;;;;5071040;28;20053;-68
2022/04/11 11:10:57;;;;;;;8.50;4.35;;;;;;;;;;5068800;28;20095;-67
2022/04/11 11:13:24;;;;;;;9.18;4.50;;;;;;;;;;5069097;28;20490;-67
2022/04/11 11:15:51;;;;;;;10.00;4.50;;;;;;;;;;5081659;28;20067;-66
2022/04/11 11:18:17;;;;;;;10.77;5.00;;;;;;;;;;5072039;28;20163;-66
2022/04/11 11:20:52;;;;;;;9.88;4.53;;;;;;;;;;5066224;28;20144;-66
2022/04/11 11:23:31;;;;;;;9.63;4.07;;;;;;;;;;5070159;28;20680;-66
2022/04/11 11:26:11;;;;;;;6.65;2.97;;;;;;;;;;5080541;28;20049;-66
2022/04/11 11:28:40;;;;;;;7.70;3.33;;;;;;;;;;5068572;28;20207;-66
2022/04/11 11:31:27;;;;;;;15.35;3.60;;;;;;;;;;5071197;28;20075;-66
2022/04/11 11:33:55;;;;;;;8.75;3.30;;;;;;;;;;5068987;28;20114;-66
2022/04/11 11:36:28;;;;;;;8.40;3.83;;;;;;;;;;5066814;28;20060;-66
2022/04/11 11:39:10;;;;;;;7.30;3.45;;;;;;;;;;5066262;28;20053;-66
2022/04/11 11:41:37;;;;;;;9.73;3.38;;;;;;;;;;5088580;28;20087;-67
2022/04/11 11:44:06;;;;;;;9.07;3.30;;;;;;;;;;5089270;28;20152;-66
2022/04/11 11:46:49;;;;;;;6.80;3.45;;;;;;;;;;5088998;28;20283;-67
2022/04/11 11:49:16;;;;;;;7.32;3.33;;;;;;;;;;5070209;28;20057;-67
2022/04/11 11:51:42;;;;;;;8.65;3.22;;;;;;;;;;5072823;28;20152;-67
2022/04/11 11:54:09;;;;;;;7.38;3.22;;;;;;;;;;5080172;28;20080;-67
2022/04/11 11:56:45;;;;;;;7.93;3.38;;;;;;;;;;5053627;28;20139;-67
2022/04/11 11:59:12;;;;;;;10.00;3.20;;;;;;;;;;5067800;28;20057;-67
2022/04/11 12:01:39;;;;;;;7.75;3.33;;;;;;;;;;5074108;28;20084;-66
2022/04/11 12:04:18;;;;;;;6.43;2.90;;;;;;;;;;5079191;28;20421;-67
2022/04/11 12:06:54;;;;;;;6.22;3.13;;;;;;;;;;5079448;28;20057;-67
2022/04/11 12:09:20;;;;;;;5.90;3.13;;;;;;;;;;5068451;28;20590;-67
2022/04/11 12:11:47;;;;;;;6.72;3.42;;;;;;;;;;5074149;28;20060;-67
2022/04/11 12:14:13;;;;;;;10.07;3.55;;;;;;;;;;5088848;28;20148;-67
2022/04/11 12:17:00;;;;;;;6.43;2.97;;;;;;;;;;5081787;28;20052;-67
2022/04/11 12:19:36;;;;;;;11.43;3.30;;;;;;;;;;5066572;28;20055;-67
2022/04/11 12:22:13;;;;;;;7.90;3.42;;;;;;;;;;5078193;28;20143;-66
2022/04/11 12:24:40;;;;;;;9.20;3.03;;;;;;;;;;5088367;28;20067;-67
2022/04/11 12:27:10;;;;;;;7.38;3.40;;;;;;;;;;5087484;28;20498;-67
2022/04/11 12:29:40;;;;;;;10.50;3.75;;;;;;;;;;5083089;28;20084;-67
2022/04/11 12:32:11;;;;;;;9.98;3.30;;;;;;;;;;5067747;28;20057;-67
2022/04/11 12:34:38;;;;;;;8.55;3.75;;;;;;;;;;5066743;28;20052;-67
2022/04/11 12:37:07;;;;;;;7.03;3.00;;;;;;;;;;5068534;28;20057;-67
2022/04/11 12:39:34;;;;;;;;;;;;;;;;;;5068507;28;20136;-67
2022/04/11 12:42:00;;;;;;;10.82;3.38;;;;;;;;;;5070308;28;45425;-67
2022/04/11 12:44:34;;;;;;;6.78;3.25;;;;;;;;;;5066352;28;20060;-67
2022/04/11 12:47:03;;;;;;;6.85;2.92;;;;;;;;;;5061308;28;20077;-67
2022/04/11 12:49:49;;;;;;;7.50;3.20;;;;;;;;;;5048732;28;20071;-67
2022/04/11 12:52:16;;;;;;;7.95;3.67;;;;;;;;;;5058126;28;20131;-67
2022/04/11 12:54:47;;;;;;;10.57;3.33;;;;;;;;;;5065446;28;20057;-67
2022/04/11 12:57:21;;;;;;;8.35;3.08;;;;;;;;;;5067729;28;20057;-67
2022/04/11 12:59:48;;;;;;;6.50;3.05;;;;;;;;;;5068003;28;20148;-67
2022/04/11 13:02:15;;;;;;;5.90;2.55;;;;;;;;;;5062876;28;20054;-67
2022/04/11 13:04:52;;;;;;;7.75;3.28;;;;;;;;;;5074081;28;20053;-67
2022/04/11 13:07:39;;;;;;;4.72;2.42;;;;;;;;;;5088421;28;20049;-66
2022/04/11 13:10:06;;;;;;;6.63;3.25;;;;;;;;;;5088028;28;20504;-66
2022/04/11 13:12:33;;;;;;;7.90;3.33;;;;;;;;;;5081456;28;20068;-65
2022/04/11 13:14:59;;;;;;;10.68;3.50;;;;;;;;;;5067584;28;20049;-66
2022/04/11 13:20:31;;;;;;;7.30;3.13;;;;;;;;;;5053296;28;20053;-66
2022/04/11 13:22:58;;;;;;;6.88;2.83;;;;;;;;;;5065006;28;20586;-67
2022/04/11 13:25:24;;;;;;;11.15;3.33;;;;;;;;;;5067405;28;20152;-67
2022/04/11 13:28:11;;;;;;;7.43;3.10;;;;;;;;;;5066808;28;20049;-67
2022/04/11 13:30:37;;;;;;;5.65;2.88;;;;;;;;;;5066513;28;20509;-67
2022/04/11 13:33:03;;;;;;;8.07;2.90;;;;;;;;;;5067415;28;20122;-67
2022/04/11 13:35:30;;;;;;;5.97;2.90;;;;;;;;;;5067599;28;20051;-67
2022/04/11 13:37:56;;;;;;;11.93;4.45;;;;;;;;;;5069547;28;20078;-67
2022/04/11 13:40:22;;;;;;;7.57;3.75;;;;;;;;;;5085877;28;20084;-67
2022/04/11 13:42:49;;;;;;;7.70;3.85;;;;;;;;;;5085823;28;20135;-67
2022/04/11 13:45:35;;;;;;;7.97;3.75;;;;;;;;;;5090199;28;20067;-67
2022/04/11 13:48:02;;;;;;;7.95;3.55;;;;;;;;;;5083019;28;20049;-67
2022/04/11 13:50:29;;;;;;;8.50;3.40;;;;;;;;;;5087015;28;20075;-67
2022/04/11 13:52:55;;;;;;;7.68;3.55;;;;;;;;;;5081909;28;20518;-67
2022/04/11 13:55:21;;;;;;;9.68;3.22;;;;;;;;;;5049810;28;20049;-67
2022/04/11 13:57:48;;;;;;;6.95;3.53;;;;;;;;;;5067595;28;20053;-67
2022/04/11 14:00:14;;;;;;;7.43;3.63;;;;;;;;;;5075423;28;20580;-67
2022/04/11 14:02:41;;;;;;;9.05;3.72;;;;;;;;;;5084759;28;20059;-67
2022/04/11 14:05:07;;;;;;;9.13;3.78;;;;;;;;;;5074781;28;20219;-67
2022/04/11 14:07:34;;;;;;;7.70;3.92;;;;;;;;;;5069578;28;20488;-67
2022/04/11 14:10:04;;;;;;;7.72;4.10;;;;;;;;;;5068125;28;20053;-67
2022/04/11 14:12:31;;;;;;;9.15;3.47;;;;;;;;;;5064119;28;20586;-67
2022/04/11 14:14:57;;;;;;;9.35;4.10;;;;;;;;;;5081346;28;20143;-67
2022/04/11 14:17:23;;;;;;;7.72;4.25;;;;;;;;;;5069821;28;20144;-67
2022/04/11 14:19:50;;;;;;;8.57;4.28;;;;;;;;;;5070074;28;20048;-67
2022/04/11 14:22:17;;;;;;;10.30;3.53;;;;;;;;;;5068350;28;20064;-67
2022/04/11 14:24:43;;;;;;;9.57;3.88;;;;;;;;;;5069356;28;20496;-67
2022/04/11 14:27:14;;;;;;;10.10;4.10;;;;;;;;;;5064978;28;20510;-67
2022/04/11 14:29:43;;;;;;;8.15;4.20;;;;;;;;;;5063209;28;20045;-67
2022/04/11 14:32:10;;;;;;;8.68;4.03;;;;;;;;;;5072037;28;20574;-67
2022/04/11 14:34:36;;;;;;;7.43;3.53;;;;;;;;;;5077071;28;20048;-67
2022/04/11 14:37:03;;;;;;;8.32;3.30;;;;;;;;;;5090407;28;20058;-70
2022/04/11 14:39:29;;;;;;;8.95;3.40;;;;;;;;;;5077459;28;20119;-68
2022/04/11 14:41:56;;;;;;;9.45;3.67;;;;;;;;;;5066863;28;20598;-68
2022/04/11 14:44:22;;;;;;;6.70;3.08;;;;;;;;;;5069274;28;20057;-65
2022/04/11 14:46:49;;;;;;;7.63;3.25;;;;;;;;;;5070178;28;20144;-68